createdAt,value
2017-09-04T00:00:35.954Z,14.0
2017-09-04T00:01:37.346Z,13.9
2017-09-04T00:02:38.738Z,14.0
2017-09-04T00:03:40.126Z,14.0
2017-09-04T00:04:41.514Z,14.0
2017-09-04T00:05:42.903Z,14.1
2017-09-04T00:06:44.292Z,14.0
2017-09-04T00:07:45.683Z,14.0
2017-09-04T00:08:47.073Z,13.9
2017-09-04T00:09:48.466Z,14.0
2017-09-04T00:10:49.856Z,14.0
2017-09-04T00:11:51.244Z,14.1
2017-09-04T00:12:52.636Z,14.0
2017-09-04T00:13:54.029Z,14.0
2017-09-04T00:14:55.418Z,14.0
2017-09-04T00:15:56.810Z,14.1
2017-09-04T00:16:58.202Z,14.0
2017-09-04T00:17:59.590Z,14.0
2017-09-04T00:19:00.979Z,14.1
2017-09-04T00:20:02.403Z,14.0
2017-09-04T00:21:03.792Z,14.0
2017-09-04T00:22:05.185Z,14.0
2017-09-04T00:23:06.577Z,14.0
2017-09-04T00:24:07.967Z,14.0
2017-09-04T00:25:09.356Z,14.0
2017-09-04T00:26:10.750Z,14.0
2017-09-04T00:27:12.137Z,14.1
2017-09-04T00:28:13.562Z,14.0
2017-09-04T00:29:14.918Z,14.0
2017-09-04T00:30:16.309Z,14.0
2017-09-04T00:31:17.702Z,14.0
2017-09-04T00:32:19.091Z,14.1
2017-09-04T00:33:20.479Z,14.0
2017-09-04T00:34:21.869Z,14.0
2017-09-04T00:35:23.260Z,14.0
2017-09-04T00:36:24.651Z,14.0
2017-09-04T00:37:26.042Z,14.0
2017-09-04T00:38:27.432Z,14.0
2017-09-04T00:39:28.827Z,14.0
2017-09-04T00:40:30.209Z,13.9
2017-09-04T00:41:31.599Z,14.0
2017-09-04T00:42:32.990Z,13.9
2017-09-04T00:43:34.382Z,14.1
2017-09-04T00:44:35.773Z,14.1
2017-09-04T00:45:37.174Z,14.0
2017-09-04T00:46:38.577Z,14.1
2017-09-04T00:47:39.966Z,13.9
2017-09-04T00:48:41.354Z,14.0
2017-09-04T00:49:42.748Z,13.9
2017-09-04T00:50:44.148Z,14.0
2017-09-04T00:51:45.538Z,13.9
2017-09-04T00:52:46.929Z,14.0
2017-09-04T00:53:48.318Z,14.0
2017-09-04T00:54:49.707Z,14.0
2017-09-04T00:55:51.096Z,13.9
2017-09-04T00:56:52.485Z,13.8
2017-09-04T00:57:53.872Z,13.8
2017-09-04T00:58:55.264Z,13.7
2017-09-04T00:59:56.655Z,13.8
2017-09-04T01:00:58.046Z,13.7
2017-09-04T01:01:59.433Z,13.7
2017-09-04T01:03:00.825Z,13.7
2017-09-04T01:04:02.215Z,13.8
2017-09-04T01:05:03.612Z,13.7
2017-09-04T01:06:04.993Z,13.8
2017-09-04T01:07:06.384Z,13.7
2017-09-04T01:08:07.772Z,13.7
2017-09-04T01:09:09.161Z,13.8
2017-09-04T01:10:10.549Z,13.7
2017-09-04T01:11:11.940Z,13.8
2017-09-04T01:12:13.328Z,13.7
2017-09-04T01:13:14.722Z,13.8
2017-09-04T01:14:16.114Z,13.8
2017-09-04T01:15:17.501Z,13.8
2017-09-04T01:16:18.888Z,13.8
2017-09-04T01:17:20.278Z,13.7
2017-09-04T01:18:21.672Z,13.7
2017-09-04T01:19:23.057Z,13.7
2017-09-04T01:20:24.447Z,13.7
2017-09-04T01:21:25.837Z,13.7
2017-09-04T01:22:27.226Z,13.7
2017-09-04T01:23:28.614Z,13.7
2017-09-04T01:24:30.005Z,13.7
2017-09-04T01:25:31.396Z,13.7
2017-09-04T01:26:32.785Z,13.6
2017-09-04T01:27:34.176Z,13.7
2017-09-04T01:28:35.565Z,13.7
2017-09-04T01:29:36.956Z,13.7
2017-09-04T01:30:38.347Z,13.6
2017-09-04T01:31:39.738Z,13.6
2017-09-04T01:32:41.128Z,13.6
2017-09-04T01:33:42.515Z,13.5
2017-09-04T01:34:43.904Z,13.6
2017-09-04T01:35:45.308Z,13.6
2017-09-04T01:36:46.688Z,13.6
2017-09-04T01:37:48.086Z,13.6
2017-09-04T01:38:49.477Z,13.6
2017-09-04T01:39:50.866Z,13.5
2017-09-04T01:40:52.262Z,13.5
2017-09-04T01:41:53.648Z,13.5
2017-09-04T01:42:55.039Z,13.5
2017-09-04T01:43:56.427Z,13.5
2017-09-04T01:44:57.815Z,13.5
2017-09-04T01:45:59.207Z,13.5
2017-09-04T01:47:00.593Z,13.5
2017-09-04T01:48:01.985Z,13.5
2017-09-04T01:49:03.378Z,13.4
2017-09-04T01:50:04.769Z,13.4
2017-09-04T01:51:06.157Z,13.5
2017-09-04T01:52:07.544Z,13.5
2017-09-04T01:53:08.930Z,13.5
2017-09-04T01:54:10.321Z,13.4
2017-09-04T01:55:11.711Z,13.5
2017-09-04T01:56:13.102Z,13.4
2017-09-04T01:57:14.495Z,13.4
2017-09-04T01:58:15.881Z,13.4
2017-09-04T01:59:17.268Z,13.4
2017-09-04T02:00:18.657Z,13.4
2017-09-04T02:01:20.047Z,13.3
2017-09-04T02:02:21.447Z,13.4
2017-09-04T02:03:22.839Z,13.2
2017-09-04T02:04:24.230Z,13.4
2017-09-04T02:05:25.619Z,13.4
2017-09-04T02:06:27.009Z,13.2
2017-09-04T02:07:28.434Z,13.3
2017-09-04T02:08:29.825Z,13.3
2017-09-04T02:09:31.216Z,13.2
2017-09-04T02:10:32.608Z,13.2
2017-09-04T02:11:33.998Z,13.2
2017-09-04T02:12:35.384Z,13.2
2017-09-04T02:13:36.773Z,13.2
2017-09-04T02:14:38.164Z,13.1
2017-09-04T02:15:39.554Z,13.2
2017-09-04T02:16:40.945Z,13.2
2017-09-04T02:17:42.335Z,13.1
2017-09-04T02:18:43.725Z,13.2
2017-09-04T02:19:45.112Z,13.1
2017-09-04T02:20:46.502Z,13.2
2017-09-04T02:21:47.894Z,13.1
2017-09-04T02:22:49.284Z,13.1
2017-09-04T02:23:50.670Z,13.2
2017-09-04T02:24:52.061Z,13.1
2017-09-04T02:25:53.458Z,13.1
2017-09-04T02:26:54.846Z,13.0
2017-09-04T02:27:56.231Z,13.1
2017-09-04T02:28:57.628Z,13.2
2017-09-04T02:29:59.021Z,13.1
2017-09-04T02:31:00.410Z,13.0
2017-09-04T02:32:01.797Z,13.0
2017-09-04T02:33:03.188Z,13.1
2017-09-04T02:34:04.577Z,13.0
2017-09-04T02:35:05.967Z,13.0
2017-09-04T02:36:07.353Z,13.0
2017-09-04T02:37:08.743Z,13.0
2017-09-04T02:38:10.130Z,13.0
2017-09-04T02:39:11.521Z,13.0
2017-09-04T02:40:12.913Z,13.0
2017-09-04T02:41:14.301Z,13.1
2017-09-04T02:42:15.690Z,13.1
2017-09-04T02:43:17.076Z,13.2
2017-09-04T02:44:18.467Z,13.0
2017-09-04T02:45:19.858Z,13.1
2017-09-04T02:46:21.255Z,13.1
2017-09-04T02:47:22.642Z,13.1
2017-09-04T02:48:24.029Z,13.2
2017-09-04T02:49:25.418Z,13.1
2017-09-04T02:50:26.806Z,13.1
2017-09-04T02:51:28.202Z,13.1
2017-09-04T02:52:29.592Z,13.0
2017-09-04T02:53:30.980Z,13.0
2017-09-04T02:54:32.373Z,13.0
2017-09-04T02:55:33.763Z,13.0
2017-09-04T02:56:35.154Z,13.0
2017-09-04T02:57:36.542Z,13.0
2017-09-04T02:58:37.932Z,12.9
2017-09-04T02:59:39.323Z,13.0
2017-09-04T03:00:40.715Z,13.1
2017-09-04T03:01:42.105Z,13.0
2017-09-04T03:02:43.493Z,13.0
2017-09-04T03:03:44.880Z,13.0
2017-09-04T03:04:46.269Z,13.0
2017-09-04T03:05:47.663Z,12.9
2017-09-04T03:06:49.050Z,13.0
2017-09-04T03:07:50.442Z,13.0
2017-09-04T03:08:51.834Z,13.0
2017-09-04T03:09:53.224Z,13.0
2017-09-04T03:10:54.614Z,13.1
2017-09-04T03:11:56.005Z,13.1
2017-09-04T03:12:57.393Z,13.0
2017-09-04T03:13:58.783Z,13.0
2017-09-04T03:15:00.172Z,12.9
2017-09-04T03:16:01.565Z,12.9
2017-09-04T03:17:02.954Z,12.9
2017-09-04T03:18:04.342Z,12.9
2017-09-04T03:19:05.731Z,12.9
2017-09-04T03:20:07.123Z,12.9
2017-09-04T03:21:08.512Z,12.9
2017-09-04T03:22:09.906Z,12.9
2017-09-04T03:23:11.295Z,12.9
2017-09-04T03:24:12.683Z,13.0
2017-09-04T03:25:14.077Z,12.9
2017-09-04T03:26:15.464Z,12.9
2017-09-04T03:27:16.854Z,13.0
2017-09-04T03:28:18.246Z,13.0
2017-09-04T03:29:19.634Z,12.9
2017-09-04T03:30:21.024Z,12.9
2017-09-04T03:31:22.411Z,13.0
2017-09-04T03:32:23.799Z,13.0
2017-09-04T03:33:25.187Z,12.9
2017-09-04T03:34:26.578Z,13.0
2017-09-04T03:35:27.969Z,13.0
2017-09-04T03:36:29.358Z,13.1
2017-09-04T03:37:30.749Z,13.1
2017-09-04T03:38:32.135Z,13.0
2017-09-04T03:39:33.526Z,13.0
2017-09-04T03:40:34.913Z,13.1
2017-09-04T03:41:36.303Z,13.1
2017-09-04T03:42:37.697Z,13.1
2017-09-04T03:43:39.082Z,13.1
2017-09-04T03:44:40.475Z,13.1
2017-09-04T03:45:41.863Z,13.2
2017-09-04T03:46:43.252Z,13.2
2017-09-04T03:47:44.641Z,13.2
2017-09-04T03:48:46.028Z,13.2
2017-09-04T03:49:47.417Z,13.1
2017-09-04T03:50:48.806Z,13.2
2017-09-04T03:51:50.200Z,13.2
2017-09-04T03:52:51.586Z,13.1
2017-09-04T03:53:52.977Z,13.2
2017-09-04T03:54:54.404Z,13.2
2017-09-04T03:55:55.796Z,13.2
2017-09-04T03:56:57.189Z,13.2
2017-09-04T03:57:58.577Z,13.2
2017-09-04T03:58:59.969Z,13.2
2017-09-04T04:00:01.356Z,13.1
2017-09-04T04:01:02.745Z,13.2
2017-09-04T04:02:04.136Z,13.2
2017-09-04T04:03:05.525Z,13.2
2017-09-04T04:04:06.915Z,13.3
2017-09-04T04:05:08.307Z,13.3
2017-09-04T04:06:09.700Z,13.3
2017-09-04T04:07:11.094Z,13.2
2017-09-04T04:08:12.478Z,13.2
2017-09-04T04:09:13.866Z,13.2
2017-09-04T04:10:15.258Z,13.2
2017-09-04T04:11:16.648Z,13.2
2017-09-04T04:12:18.038Z,13.3
2017-09-04T04:13:19.447Z,13.2
2017-09-04T04:14:20.833Z,13.3
2017-09-04T04:15:22.223Z,13.3
2017-09-04T04:16:23.610Z,13.3
2017-09-04T04:17:25.000Z,13.2
2017-09-04T04:18:26.391Z,13.3
2017-09-04T04:19:27.782Z,13.3
2017-09-04T04:20:29.175Z,13.4
2017-09-04T04:21:30.566Z,13.3
2017-09-04T04:22:31.953Z,13.3
2017-09-04T04:23:33.339Z,13.3
2017-09-04T04:24:34.729Z,13.4
2017-09-04T04:25:36.118Z,13.3
2017-09-04T04:26:37.508Z,13.5
2017-09-04T04:27:38.898Z,13.5
2017-09-04T04:28:40.286Z,13.5
2017-09-04T04:29:41.677Z,13.5
2017-09-04T04:30:43.065Z,13.5
2017-09-04T04:31:44.454Z,13.5
2017-09-04T04:32:45.844Z,13.4
2017-09-04T04:33:47.234Z,13.4
2017-09-04T04:34:48.626Z,13.4
2017-09-04T04:35:50.014Z,13.5
2017-09-04T04:36:51.402Z,13.5
2017-09-04T04:37:52.793Z,13.6
2017-09-04T04:38:54.184Z,13.5
2017-09-04T04:39:55.576Z,13.5
2017-09-04T04:40:56.975Z,13.5
2017-09-04T04:41:58.369Z,13.5
2017-09-04T04:42:59.757Z,13.4
2017-09-04T04:44:01.145Z,13.5
2017-09-04T04:45:02.535Z,13.6
2017-09-04T04:46:03.933Z,13.5
2017-09-04T04:47:05.334Z,13.5
2017-09-04T04:48:06.723Z,13.5
2017-09-04T04:49:08.121Z,13.5
2017-09-04T04:50:09.509Z,13.5
2017-09-04T04:51:10.901Z,13.5
2017-09-04T04:52:12.327Z,13.4
2017-09-04T04:53:13.683Z,13.5
2017-09-04T04:54:15.076Z,13.6
2017-09-04T04:55:16.468Z,13.5
2017-09-04T04:56:17.856Z,13.4
2017-09-04T04:57:19.248Z,13.5
2017-09-04T04:58:20.636Z,13.5
2017-09-04T04:59:22.027Z,13.5
2017-09-04T05:00:23.418Z,13.5
2017-09-04T05:01:24.811Z,13.5
2017-09-04T05:02:26.203Z,13.4
2017-09-04T05:03:27.597Z,13.4
2017-09-04T05:04:28.985Z,13.5
2017-09-04T05:05:30.389Z,13.5
2017-09-04T05:06:31.778Z,13.5
2017-09-04T05:07:33.177Z,13.4
2017-09-04T05:08:34.561Z,13.5
2017-09-04T05:09:35.954Z,13.4
2017-09-04T05:10:37.347Z,13.4
2017-09-04T05:11:38.741Z,13.5
2017-09-04T05:12:40.132Z,13.4
2017-09-04T05:13:41.525Z,13.4
2017-09-04T05:14:42.918Z,13.5
2017-09-04T05:15:44.308Z,13.4
2017-09-04T05:16:45.737Z,13.4
2017-09-04T05:17:47.097Z,13.5
2017-09-04T05:18:48.490Z,13.5
2017-09-04T05:19:49.880Z,13.4
2017-09-04T05:20:51.271Z,13.4
2017-09-04T05:21:52.665Z,13.5
2017-09-04T05:22:54.055Z,13.5
2017-09-04T05:23:55.447Z,13.5
2017-09-04T05:24:56.843Z,13.5
2017-09-04T05:25:58.232Z,13.5
2017-09-04T05:26:59.627Z,13.5
2017-09-04T05:28:01.020Z,13.5
2017-09-04T05:29:02.411Z,13.6
2017-09-04T05:30:03.811Z,13.6
2017-09-04T05:31:05.199Z,13.6
2017-09-04T05:32:06.593Z,13.6
2017-09-04T05:33:07.986Z,13.7
2017-09-04T05:34:09.379Z,13.7
2017-09-04T05:35:10.772Z,13.7
2017-09-04T05:36:12.166Z,13.8
2017-09-04T05:37:13.558Z,13.8
2017-09-04T05:38:14.951Z,13.8
2017-09-04T05:39:16.354Z,13.8
2017-09-04T05:40:17.746Z,13.9
2017-09-04T05:41:19.138Z,13.9
2017-09-04T05:42:20.533Z,13.9
2017-09-04T05:43:21.928Z,13.8
2017-09-04T05:44:23.331Z,13.9
2017-09-04T05:45:24.737Z,14.0
2017-09-04T05:46:26.131Z,14.0
2017-09-04T05:47:27.521Z,13.9
2017-09-04T05:48:28.914Z,13.9
2017-09-04T05:49:30.306Z,13.9
2017-09-04T05:50:31.718Z,14.0
2017-09-04T05:51:33.112Z,14.1
2017-09-04T05:52:34.502Z,14.1
2017-09-04T05:53:35.894Z,14.2
2017-09-04T05:54:37.284Z,14.2
2017-09-04T05:55:38.679Z,14.2
2017-09-04T05:56:40.062Z,14.2
2017-09-04T05:57:41.474Z,14.2
2017-09-04T05:58:42.872Z,14.3
2017-09-04T05:59:44.273Z,14.3
2017-09-04T06:00:45.664Z,14.4
2017-09-04T06:01:47.056Z,14.4
2017-09-04T06:02:48.450Z,14.4
2017-09-04T06:03:49.840Z,14.4
2017-09-04T06:04:51.233Z,14.5
2017-09-04T06:05:52.627Z,14.5
2017-09-04T06:06:54.022Z,14.5
2017-09-04T06:07:55.419Z,14.5
2017-09-04T06:08:56.812Z,14.6
2017-09-04T06:09:58.205Z,14.7
2017-09-04T06:10:59.598Z,14.7
2017-09-04T06:12:00.993Z,14.6
2017-09-04T06:13:02.388Z,14.7
2017-09-04T06:14:03.788Z,14.8
2017-09-04T06:15:05.183Z,14.9
2017-09-04T06:16:06.577Z,14.9
2017-09-04T06:17:07.972Z,14.9
2017-09-04T06:18:09.366Z,15.1
2017-09-04T06:19:10.759Z,15.0
2017-09-04T06:20:12.154Z,15.1
2017-09-04T06:21:13.547Z,15.1
2017-09-04T06:22:14.942Z,15.1
2017-09-04T06:23:16.336Z,15.1
2017-09-04T06:24:17.731Z,15.2
2017-09-04T06:25:19.131Z,15.2
2017-09-04T06:26:20.523Z,15.3
2017-09-04T06:27:21.915Z,15.3
2017-09-04T06:28:23.310Z,15.4
2017-09-04T06:29:24.703Z,15.4
2017-09-04T06:30:26.098Z,15.4
2017-09-04T06:31:27.488Z,15.6
2017-09-04T06:32:28.885Z,15.5
2017-09-04T06:33:30.282Z,15.5
2017-09-04T06:34:31.678Z,15.5
2017-09-04T06:35:33.074Z,15.6
2017-09-04T06:36:34.473Z,15.5
2017-09-04T06:37:35.869Z,15.5
2017-09-04T06:38:37.260Z,15.8
2017-09-04T06:39:38.655Z,15.8
2017-09-04T06:40:40.053Z,15.7
2017-09-04T06:41:41.447Z,15.9
2017-09-04T06:42:42.854Z,15.9
2017-09-04T06:43:44.240Z,15.9
2017-09-04T06:44:45.632Z,15.9
2017-09-04T06:45:47.026Z,16.0
2017-09-04T06:46:48.421Z,16.0
2017-09-04T06:47:49.820Z,16.0
2017-09-04T06:48:51.213Z,16.1
2017-09-04T06:49:52.608Z,16.1
2017-09-04T06:50:54.009Z,16.1
2017-09-04T06:51:55.400Z,16.2
2017-09-04T06:52:56.797Z,16.2
2017-09-04T06:53:58.192Z,16.2
2017-09-04T06:54:59.593Z,16.2
2017-09-04T06:56:00.988Z,16.3
2017-09-04T06:57:02.385Z,16.3
2017-09-04T06:58:03.779Z,16.3
2017-09-04T06:59:05.178Z,16.4
2017-09-04T07:00:06.573Z,16.4
2017-09-04T07:01:07.967Z,16.5
2017-09-04T07:02:09.363Z,16.5
2017-09-04T07:03:10.759Z,16.5
2017-09-04T07:04:12.158Z,16.5
2017-09-04T07:05:13.554Z,16.5
2017-09-04T07:06:14.949Z,16.6
2017-09-04T07:07:16.343Z,16.6
2017-09-04T07:08:17.738Z,16.6
2017-09-04T07:09:19.138Z,16.6
2017-09-04T07:10:20.529Z,16.6
2017-09-04T07:11:21.926Z,16.6
2017-09-04T07:12:23.332Z,16.6
2017-09-04T07:13:24.719Z,16.6
2017-09-04T07:14:26.114Z,16.6
2017-09-04T07:15:27.509Z,16.6
2017-09-04T07:16:28.905Z,16.6
2017-09-04T07:17:30.302Z,16.7
2017-09-04T07:18:31.698Z,16.6
2017-09-04T07:19:33.093Z,16.6
2017-09-04T07:20:34.489Z,16.6
2017-09-04T07:21:35.884Z,16.6
2017-09-04T07:22:37.279Z,16.7
2017-09-04T07:23:38.676Z,16.7
2017-09-04T07:24:40.071Z,16.7
2017-09-04T07:25:41.468Z,16.7
2017-09-04T07:26:42.867Z,16.7
2017-09-04T07:27:44.262Z,16.8
2017-09-04T07:28:45.659Z,16.7
2017-09-04T07:29:47.055Z,16.8
2017-09-04T07:30:48.454Z,16.8
2017-09-04T07:31:49.848Z,16.9
2017-09-04T07:32:51.248Z,16.9
2017-09-04T07:33:52.646Z,17.1
2017-09-04T07:34:54.041Z,17.0
2017-09-04T07:35:55.435Z,17.2
2017-09-04T07:36:56.833Z,17.1
2017-09-04T07:37:58.229Z,17.2
2017-09-04T07:38:59.627Z,17.2
2017-09-04T07:40:01.035Z,17.3
2017-09-04T07:41:02.463Z,17.4
2017-09-04T07:42:03.858Z,17.4
2017-09-04T07:43:05.253Z,17.5
2017-09-04T07:44:06.648Z,17.6
2017-09-04T07:45:08.047Z,17.5
2017-09-04T07:46:09.442Z,17.6
2017-09-04T07:47:10.842Z,17.6
2017-09-04T07:48:12.238Z,17.7
2017-09-04T07:49:13.633Z,17.9
2017-09-04T07:50:15.029Z,17.9
2017-09-04T07:51:16.425Z,17.9
2017-09-04T07:52:17.825Z,18.0
2017-09-04T07:53:19.223Z,18.0
2017-09-04T07:54:20.622Z,18.0
2017-09-04T07:55:22.019Z,18.1
2017-09-04T07:56:23.415Z,18.2
2017-09-04T07:57:24.808Z,18.2
2017-09-04T07:58:26.205Z,18.4
2017-09-04T07:59:27.601Z,18.4
2017-09-04T08:00:29.001Z,18.5
2017-09-04T08:01:30.396Z,18.5
2017-09-04T08:02:31.800Z,18.6
2017-09-04T08:03:33.197Z,18.7
2017-09-04T08:04:34.590Z,18.7
2017-09-04T08:05:35.987Z,18.7
2017-09-04T08:06:37.385Z,18.7
2017-09-04T08:07:38.782Z,18.8
2017-09-04T08:08:40.181Z,19.0
2017-09-04T08:09:41.580Z,18.9
2017-09-04T08:10:42.975Z,18.9
2017-09-04T08:11:44.370Z,18.9
2017-09-04T08:12:45.768Z,19.0
2017-09-04T08:13:47.163Z,19.1
2017-09-04T08:14:48.560Z,19.1
2017-09-04T08:15:49.957Z,19.3
2017-09-04T08:16:51.355Z,19.3
2017-09-04T08:17:52.750Z,19.4
2017-09-04T08:18:54.149Z,19.6
2017-09-04T08:19:55.546Z,19.6
2017-09-04T08:20:56.945Z,19.6
2017-09-04T08:21:58.347Z,19.8
2017-09-04T08:22:59.747Z,19.9
2017-09-04T08:24:01.147Z,20.0
2017-09-04T08:25:02.542Z,20.2
2017-09-04T08:26:03.944Z,20.3
2017-09-04T08:27:05.337Z,20.5
2017-09-04T08:28:06.734Z,20.6
2017-09-04T08:29:08.132Z,20.7
2017-09-04T08:30:09.533Z,20.8
2017-09-04T08:31:10.934Z,20.8
2017-09-04T08:32:12.343Z,20.9
2017-09-04T08:33:13.739Z,21.0
2017-09-04T08:34:15.138Z,21.0
2017-09-04T08:35:16.538Z,21.1
2017-09-04T08:36:17.934Z,21.1
2017-09-04T08:37:19.334Z,21.2
2017-09-04T08:38:20.737Z,21.1
2017-09-04T08:39:22.132Z,21.3
2017-09-04T08:40:23.529Z,21.3
2017-09-04T08:41:24.925Z,21.2
2017-09-04T08:42:26.324Z,21.3
2017-09-04T08:43:27.721Z,21.3
2017-09-04T08:44:29.121Z,21.3
2017-09-04T08:45:30.523Z,21.3
2017-09-04T08:46:31.919Z,21.4
2017-09-04T08:47:33.318Z,21.4
2017-09-04T08:48:34.715Z,21.4
2017-09-04T08:49:36.115Z,21.4
2017-09-04T08:50:37.514Z,21.5
2017-09-04T08:51:38.911Z,21.4
2017-09-04T08:52:40.311Z,21.5
2017-09-04T08:53:41.710Z,21.5
2017-09-04T08:54:43.108Z,21.5
2017-09-04T08:55:44.508Z,21.7
2017-09-04T08:56:45.916Z,21.8
2017-09-04T08:57:47.318Z,21.9
2017-09-04T08:58:48.724Z,22.0
2017-09-04T08:59:50.124Z,22.0
2017-09-04T09:00:51.521Z,22.1
2017-09-04T09:01:52.919Z,22.2
2017-09-04T09:02:54.316Z,22.2
2017-09-04T09:03:55.713Z,22.2
2017-09-04T09:04:57.111Z,22.3
2017-09-04T09:05:58.516Z,22.3
2017-09-04T09:06:59.912Z,22.4
2017-09-04T09:08:01.310Z,22.6
2017-09-04T09:09:02.706Z,22.5
2017-09-04T09:10:04.107Z,22.5
2017-09-04T09:11:05.504Z,22.3
2017-09-04T09:12:06.905Z,22.3
2017-09-04T09:13:08.305Z,22.3
2017-09-04T09:14:09.704Z,22.3
2017-09-04T09:15:11.185Z,22.3
2017-09-04T09:16:12.585Z,22.2
2017-09-04T09:17:14.021Z,22.2
2017-09-04T09:18:15.421Z,22.1
2017-09-04T09:19:16.822Z,22.0
2017-09-04T09:20:18.225Z,22.0
2017-09-04T09:21:19.626Z,22.1
2017-09-04T09:22:21.023Z,22.0
2017-09-04T09:23:22.429Z,21.9
2017-09-04T09:24:23.823Z,22.0
2017-09-04T09:25:25.220Z,21.8
2017-09-04T09:26:26.618Z,21.9
2017-09-04T09:27:28.018Z,21.9
2017-09-04T09:28:29.418Z,21.8
2017-09-04T09:29:30.815Z,21.8
2017-09-04T09:30:32.215Z,21.5
2017-09-04T09:31:33.613Z,21.4
2017-09-04T09:32:35.013Z,21.4
2017-09-04T09:33:36.413Z,21.4
2017-09-04T09:34:37.810Z,21.6
2017-09-04T09:35:39.213Z,21.6
2017-09-04T09:36:40.611Z,21.5
2017-09-04T09:37:42.010Z,21.5
2017-09-04T09:38:43.408Z,21.6
2017-09-04T09:39:44.811Z,21.6
2017-09-04T09:40:46.207Z,21.5
2017-09-04T09:41:47.606Z,21.5
2017-09-04T09:42:49.005Z,21.7
2017-09-04T09:43:50.402Z,21.8
2017-09-04T09:44:51.798Z,21.8
2017-09-04T09:45:53.196Z,21.9
2017-09-04T09:46:54.594Z,21.9
2017-09-04T09:47:55.996Z,21.8
2017-09-04T09:48:57.397Z,21.8
2017-09-04T09:49:58.805Z,21.9
2017-09-04T09:51:00.203Z,21.8
2017-09-04T09:52:01.599Z,22.0
2017-09-04T09:53:03.000Z,22.1
2017-09-04T09:54:04.395Z,22.1
2017-09-04T09:55:05.795Z,22.2
2017-09-04T09:56:07.194Z,22.3
2017-09-04T09:57:08.594Z,22.5
2017-09-04T09:58:09.989Z,22.5
2017-09-04T09:59:11.386Z,22.4
2017-09-04T10:00:12.785Z,22.4
2017-09-04T10:01:14.185Z,22.4
2017-09-04T10:02:15.585Z,22.4
2017-09-04T10:03:16.982Z,22.3
2017-09-04T10:04:18.386Z,22.3
2017-09-04T10:05:19.784Z,22.3
2017-09-04T10:06:21.184Z,22.4
2017-09-04T10:07:22.581Z,22.4
2017-09-04T10:08:23.980Z,22.4
2017-09-04T10:09:25.380Z,22.4
2017-09-04T10:10:26.780Z,22.4
2017-09-04T10:11:28.184Z,22.1
2017-09-04T10:12:29.577Z,22.1
2017-09-04T10:13:30.984Z,22.2
2017-09-04T10:14:32.400Z,22.3
2017-09-04T10:15:33.799Z,22.4
2017-09-04T10:16:35.199Z,22.4
2017-09-04T10:17:36.596Z,22.3
2017-09-04T10:18:38.000Z,22.5
2017-09-04T10:19:39.399Z,22.4
2017-09-04T10:20:40.799Z,22.4
2017-09-04T10:21:42.196Z,22.4
2017-09-04T10:22:43.600Z,22.4
2017-09-04T10:23:44.998Z,22.3
2017-09-04T10:24:46.400Z,22.3
2017-09-04T10:25:47.799Z,22.3
2017-09-04T10:26:49.203Z,22.3
2017-09-04T10:27:50.601Z,22.3
2017-09-04T10:28:51.998Z,22.3
2017-09-04T10:29:53.398Z,22.2
2017-09-04T10:30:54.797Z,22.2
2017-09-04T10:31:56.197Z,22.3
2017-09-04T10:32:57.596Z,22.3
2017-09-04T10:33:58.996Z,22.3
2017-09-04T10:35:00.394Z,22.3
2017-09-04T10:36:01.790Z,22.4
2017-09-04T10:37:03.191Z,22.3
2017-09-04T10:38:04.590Z,22.4
2017-09-04T10:39:05.992Z,22.3
2017-09-04T10:40:07.392Z,22.3
2017-09-04T10:41:08.789Z,22.4
2017-09-04T10:42:10.190Z,22.4
2017-09-04T10:43:11.587Z,22.4
2017-09-04T10:44:12.987Z,22.4
2017-09-04T10:45:14.386Z,22.4
2017-09-04T10:46:15.785Z,22.5
2017-09-04T10:47:17.184Z,22.7
2017-09-04T10:48:18.579Z,22.7
2017-09-04T10:49:19.979Z,22.7
2017-09-04T10:50:21.376Z,22.8
2017-09-04T10:51:22.775Z,22.7
2017-09-04T10:52:24.177Z,22.9
2017-09-04T10:53:25.575Z,23.0
2017-09-04T10:54:26.975Z,23.0
2017-09-04T10:55:28.375Z,23.1
2017-09-04T10:56:29.775Z,23.1
2017-09-04T10:57:31.178Z,23.2
2017-09-04T10:58:32.576Z,23.1
2017-09-04T10:59:33.979Z,23.2
2017-09-04T11:00:35.378Z,23.2
2017-09-04T11:01:36.776Z,23.2
2017-09-04T11:02:38.176Z,23.3
2017-09-04T11:03:39.574Z,23.4
2017-09-04T11:04:40.973Z,23.6
2017-09-04T11:05:42.373Z,23.4
2017-09-04T11:06:43.774Z,23.3
2017-09-04T11:07:45.176Z,23.3
2017-09-04T11:08:46.579Z,23.4
2017-09-04T11:09:47.976Z,23.5
2017-09-04T11:10:49.376Z,23.4
2017-09-04T11:11:50.774Z,23.3
2017-09-04T11:12:52.173Z,23.5
2017-09-04T11:13:53.571Z,23.7
2017-09-04T11:14:54.973Z,23.6
2017-09-04T11:15:56.377Z,23.6
2017-09-04T11:16:57.777Z,23.7
2017-09-04T11:17:59.174Z,23.7
2017-09-04T11:19:00.574Z,23.7
2017-09-04T11:20:01.976Z,23.9
2017-09-04T11:21:03.380Z,23.8
2017-09-04T11:22:04.779Z,23.9
2017-09-04T11:23:06.178Z,24.0
2017-09-04T11:24:07.583Z,24.1
2017-09-04T11:25:09.022Z,23.9
2017-09-04T11:26:10.379Z,23.9
2017-09-04T11:27:11.782Z,23.9
2017-09-04T11:28:13.181Z,23.7
2017-09-04T11:29:14.581Z,23.8
2017-09-04T11:30:15.993Z,23.7
2017-09-04T11:31:17.386Z,23.6
2017-09-04T11:32:18.788Z,23.6
2017-09-04T11:33:20.189Z,23.6
2017-09-04T11:34:21.589Z,23.7
2017-09-04T11:35:22.997Z,23.6
2017-09-04T11:36:24.389Z,23.6
2017-09-04T11:37:25.789Z,23.7
2017-09-04T11:38:27.187Z,23.8
2017-09-04T11:39:28.586Z,23.8
2017-09-04T11:40:29.986Z,23.9
2017-09-04T11:41:31.387Z,23.8
2017-09-04T11:42:32.791Z,23.9
2017-09-04T11:43:34.200Z,24.0
2017-09-04T11:44:35.603Z,24.0
2017-09-04T11:45:36.999Z,24.3
2017-09-04T11:46:38.400Z,24.3
2017-09-04T11:47:39.804Z,24.5
2017-09-04T11:48:41.206Z,24.6
2017-09-04T11:49:42.605Z,24.6
2017-09-04T11:50:44.008Z,24.7
2017-09-04T11:51:45.410Z,24.6
2017-09-04T11:52:46.807Z,24.6
2017-09-04T11:53:48.210Z,24.5
2017-09-04T11:54:49.607Z,24.5
2017-09-04T11:55:51.016Z,24.6
2017-09-04T11:56:52.431Z,24.6
2017-09-04T11:57:53.834Z,24.5
2017-09-04T11:58:55.234Z,24.7
2017-09-04T11:59:56.635Z,24.7
2017-09-04T12:00:58.032Z,24.6
2017-09-04T12:01:59.432Z,24.8
2017-09-04T12:03:00.836Z,24.8
2017-09-04T12:04:02.236Z,24.9
2017-09-04T12:05:03.645Z,24.8
2017-09-04T12:06:05.042Z,24.9
2017-09-04T12:07:06.444Z,24.9
2017-09-04T12:08:07.840Z,24.8
2017-09-04T12:09:09.241Z,24.6
2017-09-04T12:10:10.641Z,24.3
2017-09-04T12:11:12.042Z,24.3
2017-09-04T12:12:13.441Z,24.2
2017-09-04T12:13:14.846Z,24.3
2017-09-04T12:14:16.247Z,24.3
2017-09-04T12:15:17.647Z,24.4
2017-09-04T12:16:19.047Z,24.7
2017-09-04T12:17:20.452Z,24.8
2017-09-04T12:18:21.852Z,24.9
2017-09-04T12:19:23.255Z,24.8
2017-09-04T12:20:24.655Z,24.8
2017-09-04T12:21:26.055Z,25.0
2017-09-04T12:22:27.454Z,25.2
2017-09-04T12:23:28.855Z,25.3
2017-09-04T12:24:30.258Z,25.4
2017-09-04T12:25:31.670Z,25.6
2017-09-04T12:26:33.078Z,25.6
2017-09-04T12:27:34.474Z,25.6
2017-09-04T12:28:35.874Z,25.4
2017-09-04T12:29:37.273Z,25.3
2017-09-04T12:30:38.678Z,25.3
2017-09-04T12:31:40.074Z,25.6
2017-09-04T12:32:41.477Z,25.6
2017-09-04T12:33:42.880Z,25.6
2017-09-04T12:34:44.280Z,25.1
2017-09-04T12:35:45.680Z,24.9
2017-09-04T12:36:47.087Z,24.9
2017-09-04T12:37:48.482Z,24.9
2017-09-04T12:38:49.881Z,25.1
2017-09-04T12:39:51.284Z,25.1
2017-09-04T12:40:52.686Z,25.1
2017-09-04T12:41:54.095Z,25.1
2017-09-04T12:42:55.492Z,25.0
2017-09-04T12:43:56.889Z,24.8
2017-09-04T12:44:58.292Z,24.8
2017-09-04T12:45:59.692Z,24.5
2017-09-04T12:47:01.097Z,24.6
2017-09-04T12:48:02.494Z,24.5
2017-09-04T12:49:03.901Z,24.4
2017-09-04T12:50:05.301Z,24.3
2017-09-04T12:51:06.702Z,24.4
2017-09-04T12:52:08.101Z,24.2
2017-09-04T12:53:09.502Z,24.2
2017-09-04T12:54:10.901Z,24.1
2017-09-04T12:55:12.306Z,24.1
2017-09-04T12:56:13.707Z,23.9
2017-09-04T12:57:15.107Z,23.7
2017-09-04T12:58:16.509Z,23.7
2017-09-04T12:59:17.909Z,23.8
2017-09-04T13:00:19.309Z,23.7
2017-09-04T13:01:20.712Z,23.8
2017-09-04T13:02:22.115Z,23.7
2017-09-04T13:03:23.515Z,23.6
2017-09-04T13:04:24.910Z,23.5
2017-09-04T13:05:26.311Z,23.5
2017-09-04T13:06:27.712Z,23.4
2017-09-04T13:07:29.112Z,23.3
2017-09-04T13:08:30.514Z,23.2
2017-09-04T13:09:31.915Z,23.3
2017-09-04T13:10:33.315Z,23.2
2017-09-04T13:11:34.712Z,23.3
2017-09-04T13:12:36.114Z,23.1
2017-09-04T13:13:37.515Z,23.1
2017-09-04T13:14:38.915Z,23.1
2017-09-04T13:15:40.314Z,23.1
2017-09-04T13:16:41.716Z,22.9
2017-09-04T13:17:43.117Z,23.0
2017-09-04T13:18:44.515Z,23.0
2017-09-04T13:19:45.914Z,23.0
2017-09-04T13:20:47.313Z,23.0
2017-09-04T13:21:48.712Z,23.0
2017-09-04T13:22:50.114Z,23.0
2017-09-04T13:23:51.512Z,23.0
2017-09-04T13:24:52.915Z,23.2
2017-09-04T13:25:54.310Z,23.2
2017-09-04T13:26:55.710Z,23.2
2017-09-04T13:27:57.110Z,23.2
2017-09-04T13:28:58.510Z,23.1
2017-09-04T13:29:59.910Z,22.9
2017-09-04T13:31:01.308Z,22.8
2017-09-04T13:32:02.712Z,22.8
2017-09-04T13:33:04.108Z,22.8
2017-09-04T13:34:05.506Z,22.9
2017-09-04T13:35:06.907Z,22.8
2017-09-04T13:36:08.307Z,22.8
2017-09-04T13:37:09.708Z,22.7